Hereford, Maryland
Current Conditions -  °F | °C
As of 3:50 PM on Friday 24 Oct 2014 (Local Time) from KMTN Reporting Station
Scattered Clouds Scattered Clouds  
Wind Chill: 21°   Ceiling: Unl
Heat Index: 21°   Visibility: 10mi
Dew Point:   Wind: 15mph
Humidity: 38%   Direction: 280°W
Pressure: 29.87"   Gusts: NA
Location:  39.5784°N, 76.5798°W
Report Text: KMTN 241950Z 28013KT 10SM SCT150 21/06 A2987
Loading
Personal Weather Stations






























Interactive Weather Map
Tropical Storm Tracking
New forecast layout! Learn more

10-Day Weather Forecast

Advertisements
Track Severe Weather on mobile